createdAt,value
2023-04-09T00:02:53.607Z,29.30
2023-04-09T00:11:16.686Z,29.70
2023-04-09T00:19:39.559Z,27.10
2023-04-09T00:28:02.465Z,23.60
2023-04-09T00:36:27.081Z,29.90
2023-04-09T00:44:50.302Z,36.70
2023-04-09T00:53:14.916Z,29.50
2023-04-09T01:01:38.001Z,30.90
2023-04-09T01:10:28.352Z,27.70
2023-04-09T01:18:55.655Z,32.50
2023-04-09T01:27:20.136Z,35.60
2023-04-09T01:35:54.086Z,28.00
2023-04-09T01:44:19.394Z,29.60
2023-04-09T01:52:42.674Z,25.20
2023-04-09T02:01:12.175Z,45.30
2023-04-09T02:09:39.336Z,37.70
2023-04-09T02:18:02.364Z,53.10
2023-04-09T02:26:25.724Z,41.40
2023-04-09T02:34:48.593Z,38.00
2023-04-09T02:43:11.474Z,28.50
2023-04-09T02:51:36.104Z,21.30
2023-04-09T02:59:59.454Z,30.50
2023-04-09T03:08:22.553Z,27.30
2023-04-09T03:16:45.528Z,25.10
2023-04-09T03:25:09.156Z,36.50
2023-04-09T03:33:32.721Z,31.80
2023-04-09T03:41:58.125Z,28.30
2023-04-09T03:50:26.133Z,35.90
2023-04-09T03:58:51.750Z,33.50
2023-04-09T04:07:16.841Z,62.50
2023-04-09T04:15:47.710Z,50.90
2023-04-09T04:24:11.868Z,30.20
2023-04-09T04:32:35.909Z,29.90
2023-04-09T04:41:03.131Z,30.50
2023-04-09T04:49:27.784Z,29.50
2023-04-09T04:57:52.633Z,31.80
2023-04-09T05:06:17.724Z,51.30
2023-04-09T05:14:41.545Z,32.40
2023-04-09T05:23:05.173Z,47.70
2023-04-09T05:31:32.574Z,39.50
2023-04-09T05:40:02.130Z,31.50
2023-04-09T05:48:27.483Z,40.90
2023-04-09T05:56:52.362Z,30.60
2023-04-09T06:05:16.106Z,44.50
2023-04-09T06:13:39.748Z,34.20
2023-04-09T06:22:02.767Z,42.30
2023-04-09T06:30:25.939Z,33.00
2023-04-09T06:38:48.888Z,136.30
2023-04-09T06:47:11.800Z,24.70
2023-04-09T06:55:34.735Z,18.40
2023-04-09T07:03:58.215Z,15.90
2023-04-09T07:12:31.671Z,27.10
2023-04-09T07:20:55.379Z,15.10
2023-04-09T07:29:20.765Z,15.70
2023-04-09T07:37:44.328Z,11.50
2023-04-09T07:46:07.232Z,11.00
2023-04-09T07:54:31.649Z,12.30
2023-04-09T08:02:54.861Z,14.00
2023-04-09T08:11:22.369Z,12.10
2023-04-09T08:19:45.347Z,13.50
2023-04-09T08:28:08.552Z,13.60
2023-04-09T08:36:32.602Z,10.60
2023-04-09T08:44:55.670Z,11.80
2023-04-09T08:53:19.470Z,10.70
2023-04-09T09:01:42.460Z,28.90
2023-04-09T09:10:07.382Z,13.30
2023-04-09T09:18:41.764Z,20.80
2023-04-09T09:27:04.875Z,17.60
2023-04-09T09:35:27.902Z,12.40
2023-04-09T09:43:51.883Z,18.10
2023-04-09T09:52:16.017Z,10.90
2023-04-09T10:00:41.157Z,12.30
2023-04-09T10:09:06.389Z,11.30
2023-04-09T10:17:29.315Z,13.10
2023-04-09T10:25:53.844Z,10.40
2023-04-09T10:34:21.472Z,7.30
2023-04-09T10:42:47.710Z,8.60
2023-04-09T10:51:19.525Z,14.80
2023-04-09T10:59:54.111Z,5.40
2023-04-09T11:08:17.274Z,5.60
2023-04-09T11:16:40.718Z,7.10
2023-04-09T11:25:04.184Z,10.20
2023-04-09T11:33:34.563Z,7.00
2023-04-09T11:41:58.114Z,6.40
2023-04-09T11:50:21.876Z,8.50
2023-04-09T11:58:49.198Z,5.60
2023-04-09T12:07:12.789Z,78.00
2023-04-09T12:15:38.029Z,6.30
2023-04-09T12:24:01.440Z,5.40
2023-04-09T12:32:24.714Z,4.70
2023-04-09T12:40:47.643Z,7.80
2023-04-09T12:49:10.942Z,15.80
2023-04-09T12:57:34.672Z,7.70
2023-04-09T13:05:57.781Z,5.50
2023-04-09T13:14:20.867Z,6.90
2023-04-09T13:22:48.725Z,6.30
2023-04-09T13:31:11.753Z,7.00
2023-04-09T13:39:35.152Z,7.50
2023-04-09T13:47:59.522Z,6.00
2023-04-09T13:56:23.444Z,8.70
2023-04-09T14:04:46.505Z,11.10
2023-04-09T14:13:12.355Z,10.10
2023-04-09T14:21:35.758Z,8.30
2023-04-09T14:29:58.854Z,11.40
2023-04-09T14:38:24.145Z,8.80
2023-04-09T14:46:47.471Z,6.80
2023-04-09T14:55:12.713Z,9.70
2023-04-09T15:03:35.973Z,7.40
2023-04-09T15:11:59.165Z,9.10
2023-04-09T15:20:22.367Z,8.50
2023-04-09T15:28:46.453Z,15.60
2023-04-09T15:37:09.572Z,13.70
2023-04-09T15:45:32.551Z,8.30
2023-04-09T15:53:55.433Z,7.30
2023-04-09T16:02:20.088Z,6.20
2023-04-09T16:10:43.399Z,7.20
2023-04-09T16:19:06.275Z,16.20
2023-04-09T16:27:29.287Z,9.80
2023-04-09T16:35:52.185Z,14.00
2023-04-09T16:44:15.582Z,12.30
2023-04-09T16:52:39.601Z,24.30
2023-04-09T17:01:02.813Z,22.70
2023-04-09T17:09:26.440Z,9.70
2023-04-09T17:17:53.736Z,29.00
2023-04-09T17:43:55.081Z,35.30
2023-04-09T17:52:18.012Z,146.90
2023-04-09T18:00:43.498Z,113.70
2023-04-09T18:09:07.686Z,142.60
2023-04-09T18:17:32.601Z,73.90
2023-04-09T18:25:55.995Z,102.00
2023-04-09T18:34:20.517Z,23.30
2023-04-09T18:42:44.997Z,20.60
2023-04-09T18:51:08.041Z,22.90
2023-04-09T18:59:33.765Z,9.20
2023-04-09T19:08:05.418Z,9.90
2023-04-09T19:16:28.835Z,39.60
2023-04-09T19:24:51.795Z,25.60
2023-04-09T19:33:14.697Z,17.10
2023-04-09T19:41:37.853Z,14.50
2023-04-09T19:50:00.980Z,21.10
2023-04-09T19:58:24.537Z,31.30
2023-04-09T20:06:49.290Z,30.10
2023-04-09T20:15:12.485Z,52.60
2023-04-09T20:23:36.436Z,43.50
2023-04-09T20:31:59.529Z,38.30
2023-04-09T20:40:24.903Z,47.80
2023-04-09T20:48:47.823Z,52.50
2023-04-09T20:57:13.229Z,126.80
2023-04-09T21:05:37.120Z,98.50
2023-04-09T21:14:00.206Z,105.00
2023-04-09T21:22:24.579Z,52.70
2023-04-09T21:30:47.900Z,52.00
2023-04-09T21:39:11.684Z,35.90
2023-04-09T21:47:34.710Z,31.70
2023-04-09T21:55:57.859Z,61.60
2023-04-09T22:04:21.575Z,39.20
2023-04-09T22:12:44.707Z,79.60
2023-04-09T22:21:07.714Z,66.00
2023-04-09T22:29:31.593Z,39.60
2023-04-09T22:37:54.742Z,33.50
2023-04-09T22:46:18.149Z,64.30
2023-04-09T22:54:43.464Z,40.70
2023-04-09T23:03:06.746Z,29.10
2023-04-09T23:11:31.169Z,30.30
2023-04-09T23:19:54.381Z,62.50
2023-04-09T23:28:17.627Z,34.30
2023-04-09T23:36:41.195Z,25.90
2023-04-09T23:45:05.817Z,24.00
2023-04-09T23:53:28.866Z,30.40
